createdAt,value
2023-05-08T00:01:59.314Z,101218.75
2023-05-08T00:04:26.390Z,101219.68
2023-05-08T00:06:53.402Z,101217.27
2023-05-08T00:09:20.827Z,101215.55
2023-05-08T00:11:47.839Z,101221.06
2023-05-08T00:14:14.818Z,101219.85
2023-05-08T00:16:41.898Z,101223.60
2023-05-08T00:19:08.881Z,101226.24
2023-05-08T00:21:35.945Z,101226.96
2023-05-08T00:24:02.936Z,101227.73
2023-05-08T00:26:29.909Z,101227.27
2023-05-08T00:28:56.900Z,101226.95
2023-05-08T00:31:24.316Z,101229.79
2023-05-08T00:33:51.553Z,101231.55
2023-05-08T00:36:18.653Z,101231.73
2023-05-08T00:38:46.548Z,101232.80
2023-05-08T00:41:13.965Z,101231.09
2023-05-08T00:43:41.050Z,101230.23
2023-05-08T00:46:10.081Z,101227.61
2023-05-08T00:48:37.252Z,101228.00
2023-05-08T00:51:06.258Z,101234.00
2023-05-08T00:53:33.991Z,101234.77
2023-05-08T00:56:01.045Z,101236.05
2023-05-08T00:58:28.033Z,101234.87
2023-05-08T01:00:56.177Z,101233.21
2023-05-08T01:03:24.069Z,101236.79
2023-05-08T01:05:51.430Z,101237.38
2023-05-08T01:08:18.430Z,101231.80
2023-05-08T01:11:07.541Z,101230.06
2023-05-08T01:14:04.056Z,101228.19
2023-05-08T01:16:42.540Z,101229.45
2023-05-08T01:19:33.093Z,101228.07
2023-05-08T01:22:28.525Z,101224.22
2023-05-08T01:25:26.896Z,101224.42
2023-05-08T01:28:12.509Z,101222.88
2023-05-08T01:30:53.284Z,101219.74
2023-05-08T01:33:24.537Z,101220.98
2023-05-08T01:35:55.823Z,101218.54
2023-05-08T01:39:04.260Z,101217.85
2023-05-08T01:41:31.888Z,101220.12
2023-05-08T01:44:25.232Z,101224.52
2023-05-08T01:46:52.375Z,101223.83
2023-05-08T01:49:25.712Z,101215.93
2023-05-08T01:52:04.541Z,101218.39
2023-05-08T01:54:36.695Z,101219.80
2023-05-08T01:57:05.871Z,101215.24
2023-05-08T01:59:32.929Z,101213.14
2023-05-08T02:01:59.982Z,101213.17
2023-05-08T02:04:27.155Z,101214.75
2023-05-08T02:06:54.265Z,101213.70
2023-05-08T02:09:21.583Z,101211.78
2023-05-08T02:11:48.678Z,101213.95
2023-05-08T02:14:20.193Z,101207.66
2023-05-08T02:16:48.432Z,101207.15
2023-05-08T02:19:15.440Z,101208.90
2023-05-08T02:21:42.473Z,101202.23
2023-05-08T02:26:30.066Z,101204.84
2023-05-08T02:28:57.212Z,101202.95
2023-05-08T02:31:24.525Z,101203.11
2023-05-08T02:33:51.568Z,101206.48
2023-05-08T02:36:19.280Z,101207.90
2023-05-08T02:38:48.552Z,101209.67
2023-05-08T02:41:15.640Z,101210.39
2023-05-08T02:43:43.453Z,101208.65
2023-05-08T02:46:21.471Z,101202.86
2023-05-08T02:49:15.008Z,101202.69
2023-05-08T02:51:59.997Z,101203.23
2023-05-08T02:54:44.584Z,101201.83
2023-05-08T02:57:37.582Z,101200.77
2023-05-08T03:00:08.661Z,101195.33
2023-05-08T03:02:39.652Z,101201.84
2023-05-08T03:05:29.232Z,101202.52
2023-05-08T03:07:57.707Z,101205.52
2023-05-08T03:10:28.493Z,101208.84
2023-05-08T03:12:56.417Z,101209.73
2023-05-08T03:15:28.653Z,101214.45
2023-05-08T03:17:57.669Z,101214.23
2023-05-08T03:20:25.257Z,101214.58
2023-05-08T03:22:53.683Z,101220.89
2023-05-08T03:25:20.828Z,101224.23
2023-05-08T03:27:47.907Z,101219.11
2023-05-08T03:30:15.248Z,101222.09
2023-05-08T03:32:46.083Z,101221.70
2023-05-08T03:35:14.049Z,101226.58
2023-05-08T03:37:41.863Z,101228.64
2023-05-08T03:40:09.940Z,101234.73
2023-05-08T03:42:37.039Z,101229.94
2023-05-08T03:45:05.233Z,101232.01
2023-05-08T03:47:32.372Z,101231.20
2023-05-08T03:49:59.549Z,101234.42
2023-05-08T03:52:26.766Z,101234.71
2023-05-08T03:54:54.612Z,101236.92
2023-05-08T03:57:22.166Z,101236.96
2023-05-08T04:00:01.982Z,101239.52
2023-05-08T04:02:40.796Z,101236.52
2023-05-08T04:05:32.240Z,101233.79
2023-05-08T04:08:12.128Z,101228.93
2023-05-08T04:10:44.565Z,101224.86
2023-05-08T04:13:18.176Z,101228.73
2023-05-08T04:15:52.801Z,101232.58
2023-05-08T04:18:25.246Z,101231.09
2023-05-08T04:20:52.287Z,101229.91
2023-05-08T04:23:20.700Z,101235.84
2023-05-08T04:25:47.833Z,101234.92
2023-05-08T04:28:16.078Z,101237.02
2023-05-08T04:30:43.282Z,101237.05
2023-05-08T04:33:10.427Z,101237.47
2023-05-08T04:35:38.150Z,101242.11
2023-05-08T04:38:05.261Z,101246.34
2023-05-08T04:40:32.418Z,101247.77
2023-05-08T04:42:59.702Z,101248.69
2023-05-08T04:45:27.058Z,101251.64
2023-05-08T04:47:54.217Z,101249.37
2023-05-08T04:50:21.572Z,101249.00
2023-05-08T04:52:48.948Z,101252.62
2023-05-08T04:55:16.304Z,101256.34
2023-05-08T04:57:44.764Z,101255.55
2023-05-08T05:00:12.751Z,101259.33
2023-05-08T05:02:40.787Z,101264.98
2023-05-08T05:05:08.280Z,101265.91
2023-05-08T05:07:35.464Z,101269.46
2023-05-08T05:10:02.896Z,101265.52
2023-05-08T05:12:30.998Z,101271.39
2023-05-08T05:14:58.414Z,101276.64
2023-05-08T05:17:26.524Z,101274.55
2023-05-08T05:19:53.623Z,101267.83
2023-05-08T05:22:21.214Z,101273.45
2023-05-08T05:24:48.262Z,101270.27
2023-05-08T05:27:15.358Z,101267.05
2023-05-08T05:29:42.363Z,101263.33
2023-05-08T05:32:11.694Z,101267.55
2023-05-08T05:34:39.080Z,101265.62
2023-05-08T05:37:07.079Z,101265.80
2023-05-08T05:39:34.281Z,101270.42
2023-05-08T05:42:01.391Z,101265.66
2023-05-08T05:44:29.156Z,101265.16
2023-05-08T05:46:57.011Z,101270.10
2023-05-08T05:49:24.561Z,101268.63
2023-05-08T05:51:51.692Z,101269.06
2023-05-08T05:54:18.979Z,101268.77
2023-05-08T05:56:46.093Z,101265.26
2023-05-08T05:59:13.183Z,101268.13
2023-05-08T06:01:40.802Z,101269.60
2023-05-08T06:04:07.928Z,101275.27
2023-05-08T06:06:34.981Z,101278.55
2023-05-08T06:09:02.027Z,101276.67
2023-05-08T06:11:29.020Z,101279.69
2023-05-08T06:13:56.083Z,101277.70
2023-05-08T06:16:25.203Z,101279.84
2023-05-08T06:18:52.376Z,101276.23
2023-05-08T06:21:19.372Z,101276.68
2023-05-08T06:23:46.341Z,101284.15
2023-05-08T06:26:13.319Z,101278.82
2023-05-08T06:28:40.332Z,101280.77
2023-05-08T06:31:07.380Z,101278.64
2023-05-08T06:33:34.460Z,101274.37
2023-05-08T06:36:01.445Z,101277.70
2023-05-08T06:38:28.479Z,101281.63
2023-05-08T06:40:55.797Z,101281.95
2023-05-08T06:43:22.963Z,101277.52
2023-05-08T06:45:50.035Z,101276.34
2023-05-08T06:48:17.164Z,101280.30
2023-05-08T06:50:44.226Z,101281.60
2023-05-08T06:53:11.289Z,101282.40
2023-05-08T06:55:38.300Z,101283.89
2023-05-08T06:58:05.357Z,101290.19
2023-05-08T07:00:32.408Z,101293.73
2023-05-08T07:02:59.498Z,101297.92
2023-05-08T07:05:26.808Z,101297.25
2023-05-08T07:07:56.751Z,101297.27
2023-05-08T07:10:23.888Z,101289.52
2023-05-08T07:12:50.963Z,101287.52
2023-05-08T07:15:26.085Z,101288.28
2023-05-08T07:17:54.346Z,101289.45
2023-05-08T07:20:21.963Z,101293.27
2023-05-08T07:22:49.181Z,101290.44
2023-05-08T07:25:16.408Z,101287.06
2023-05-08T07:27:43.520Z,101279.49
2023-05-08T07:30:10.912Z,101285.10
2023-05-08T07:32:39.606Z,101287.39
2023-05-08T07:35:10.964Z,101287.10
2023-05-08T07:37:39.623Z,101285.28
2023-05-08T07:40:07.490Z,101279.05
2023-05-08T07:42:41.734Z,101282.71
2023-05-08T07:45:09.963Z,101280.45
2023-05-08T07:47:37.102Z,101279.11
2023-05-08T07:50:04.523Z,101279.88
2023-05-08T07:52:32.116Z,101278.02
2023-05-08T07:54:59.233Z,101273.79
2023-05-08T07:57:26.211Z,101277.71
2023-05-08T07:59:53.182Z,101273.98
2023-05-08T08:02:20.286Z,101269.81
2023-05-08T08:04:47.342Z,101272.53
2023-05-08T08:07:14.377Z,101276.28
2023-05-08T08:09:41.350Z,101274.31
2023-05-08T08:12:08.415Z,101279.06
2023-05-08T08:14:35.509Z,101280.70
2023-05-08T08:17:02.628Z,101283.42
2023-05-08T08:19:29.796Z,101278.48
2023-05-08T08:21:56.866Z,101281.36
2023-05-08T08:24:24.021Z,101278.85
2023-05-08T08:26:51.126Z,101279.55
2023-05-08T08:29:18.239Z,101276.59
2023-05-08T08:31:45.320Z,101276.52
2023-05-08T08:34:12.616Z,101272.40
2023-05-08T08:36:39.987Z,101269.59
2023-05-08T08:39:07.793Z,101267.42
2023-05-08T08:41:36.687Z,101267.60
2023-05-08T08:44:03.808Z,101264.52
2023-05-08T08:46:31.273Z,101260.52
2023-05-08T08:48:58.332Z,101256.73
2023-05-08T08:51:32.083Z,101254.79
2023-05-08T08:54:05.037Z,101258.59
2023-05-08T08:56:33.248Z,101256.41
2023-05-08T08:59:00.786Z,101256.56
2023-05-08T09:01:29.542Z,101256.45
2023-05-08T09:04:00.114Z,101256.41
2023-05-08T09:06:27.906Z,101249.87
2023-05-08T09:08:56.928Z,101252.36
2023-05-08T09:11:24.859Z,101257.50
2023-05-08T09:13:51.900Z,101258.00
2023-05-08T09:16:18.990Z,101255.26
2023-05-08T09:18:46.214Z,101249.80
2023-05-08T09:21:13.211Z,101252.02
2023-05-08T09:24:02.979Z,101253.89
2023-05-08T09:26:37.336Z,101244.45
2023-05-08T09:29:22.488Z,101244.70
2023-05-08T09:31:53.713Z,101244.48
2023-05-08T09:34:28.485Z,101240.99
2023-05-08T09:36:56.470Z,101234.32
2023-05-08T09:39:25.008Z,101234.55
2023-05-08T09:42:02.477Z,101232.98
2023-05-08T09:44:29.625Z,101233.51
2023-05-08T09:47:16.495Z,101232.88
2023-05-08T09:50:03.449Z,101232.91
2023-05-08T09:52:31.498Z,101237.16
2023-05-08T09:55:02.528Z,101241.35
2023-05-08T09:57:30.561Z,101236.96
2023-05-08T10:00:16.235Z,101234.37
2023-05-08T10:03:00.308Z,101231.11
2023-05-08T10:05:30.324Z,101234.14
2023-05-08T10:07:58.576Z,101228.64
2023-05-08T10:10:31.082Z,101232.52
2023-05-08T10:12:58.860Z,101231.33
2023-05-08T10:15:28.871Z,101228.58
2023-05-08T10:18:06.999Z,101226.91
2023-05-08T10:20:37.147Z,101230.41
2023-05-08T10:23:04.265Z,101232.34
2023-05-08T10:25:33.435Z,101219.95
2023-05-08T10:28:17.050Z,101217.95
2023-05-08T10:30:47.703Z,101215.48
2023-05-08T10:33:15.759Z,101216.70
2023-05-08T10:35:42.846Z,101219.50
2023-05-08T10:38:10.189Z,101220.81
2023-05-08T10:40:38.158Z,101213.55
2023-05-08T10:43:07.528Z,101222.55
2023-05-08T10:45:34.637Z,101227.73
2023-05-08T10:48:13.975Z,101230.39
2023-05-08T10:51:18.050Z,101227.58
2023-05-08T10:53:56.090Z,101221.26
2023-05-08T10:56:27.593Z,101223.45
2023-05-08T10:58:58.609Z,101226.15
2023-05-08T11:01:26.307Z,101221.08
2023-05-08T11:03:55.884Z,101219.22
2023-05-08T11:06:43.758Z,101211.08
2023-05-08T11:09:22.123Z,101214.46
2023-05-08T11:12:08.946Z,101209.11
2023-05-08T11:14:38.126Z,101217.66
2023-05-08T11:17:05.570Z,101216.84
2023-05-08T11:19:32.806Z,101220.21
2023-05-08T11:22:26.555Z,101214.89
2023-05-08T11:25:00.681Z,101208.60
2023-05-08T11:27:50.099Z,101210.80
2023-05-08T11:30:32.605Z,101218.61
2023-05-08T11:33:06.436Z,101218.30
2023-05-08T11:35:56.555Z,101216.40
2023-05-08T11:38:29.824Z,101219.26
2023-05-08T11:40:58.513Z,101221.14
2023-05-08T11:43:38.214Z,101217.58
2023-05-08T11:46:05.205Z,101220.29
2023-05-08T11:48:33.069Z,101208.72
2023-05-08T11:51:00.573Z,101212.28
2023-05-08T11:53:28.370Z,101209.30
2023-05-08T11:55:55.526Z,101199.30
2023-05-08T11:58:22.773Z,101199.63
2023-05-08T12:00:50.436Z,101199.29
2023-05-08T12:03:18.249Z,101202.52
2023-05-08T12:05:45.930Z,101204.86
2023-05-08T12:08:13.950Z,101204.57
2023-05-08T12:10:41.894Z,101199.48
2023-05-08T12:13:26.692Z,101201.09
2023-05-08T12:15:55.796Z,101210.65
2023-05-08T12:18:23.802Z,101209.54
2023-05-08T12:20:58.369Z,101210.42
2023-05-08T12:23:26.309Z,101212.80
2023-05-08T12:25:56.154Z,101212.61
2023-05-08T12:28:23.229Z,101208.80
2023-05-08T12:30:50.353Z,101210.02
2023-05-08T12:33:17.592Z,101206.66
2023-05-08T12:35:44.636Z,101209.91
2023-05-08T12:38:12.304Z,101203.05
2023-05-08T12:40:43.933Z,101200.64
2023-05-08T12:43:11.380Z,101197.05
2023-05-08T12:45:40.096Z,101201.58
2023-05-08T12:48:11.366Z,101202.14
2023-05-08T12:50:40.460Z,101197.19
2023-05-08T12:53:11.840Z,101197.26
2023-05-08T12:55:40.006Z,101196.36
2023-05-08T12:58:16.471Z,101188.70
2023-05-08T13:00:44.956Z,101199.70
2023-05-08T13:03:27.722Z,101204.39
2023-05-08T13:05:56.671Z,101209.20
2023-05-08T13:08:31.505Z,101205.58
2023-05-08T13:10:58.622Z,101200.53
2023-05-08T13:13:27.298Z,101207.36
2023-05-08T13:15:55.290Z,101207.14
2023-05-08T13:18:25.051Z,101213.48
2023-05-08T13:20:52.060Z,101219.34
2023-05-08T13:23:19.108Z,101215.12
2023-05-08T13:25:46.212Z,101217.19
2023-05-08T13:28:13.331Z,101219.02
2023-05-08T13:30:40.418Z,101218.30
2023-05-08T13:33:07.977Z,101221.90
2023-05-08T13:35:35.207Z,101219.08
2023-05-08T13:38:02.440Z,101224.13
2023-05-08T13:40:30.094Z,101227.04
2023-05-08T13:42:57.214Z,101225.44
2023-05-08T13:45:24.281Z,101223.52
2023-05-08T13:47:51.490Z,101222.35
2023-05-08T13:50:22.432Z,101224.05
2023-05-08T13:52:51.006Z,101229.77
2023-05-08T13:55:22.200Z,101234.56
2023-05-08T13:57:49.288Z,101237.36
2023-05-08T14:00:16.928Z,101236.80
2023-05-08T14:02:44.074Z,101238.95
2023-05-08T14:05:11.544Z,101233.89
2023-05-08T14:07:38.838Z,101233.31
2023-05-08T14:10:06.169Z,101235.79
2023-05-08T14:12:36.584Z,101235.21
2023-05-08T14:15:07.642Z,101231.99
2023-05-08T14:17:34.768Z,101236.66
2023-05-08T14:20:01.860Z,101236.46
2023-05-08T14:22:28.879Z,101237.10
2023-05-08T14:24:56.028Z,101237.65
2023-05-08T14:27:23.060Z,101232.02
2023-05-08T14:29:50.200Z,101232.80
2023-05-08T14:32:17.266Z,101224.73
2023-05-08T14:34:44.779Z,101220.52
2023-05-08T14:37:13.274Z,101223.39
2023-05-08T14:39:40.443Z,101225.85
2023-05-08T14:44:06.576Z,101225.45
2023-05-08T14:46:33.672Z,101221.61
2023-05-08T14:49:00.723Z,101220.98
2023-05-08T14:51:28.480Z,101221.23
2023-05-08T14:53:55.650Z,101215.73
2023-05-08T14:56:24.985Z,101215.50
2023-05-08T14:58:52.208Z,101221.59
2023-05-08T15:01:19.432Z,101231.02
2023-05-08T15:03:53.472Z,101227.70
2023-05-08T15:06:22.283Z,101225.12
2023-05-08T15:08:49.446Z,101222.50
2023-05-08T15:11:16.568Z,101220.48
2023-05-08T15:13:43.611Z,101221.65
2023-05-08T15:16:10.757Z,101220.86
2023-05-08T15:18:38.739Z,101221.77
2023-05-08T15:21:05.995Z,101226.88
2023-05-08T15:23:33.057Z,101225.93
2023-05-08T15:26:00.556Z,101223.90
2023-05-08T15:28:27.534Z,101235.33
2023-05-08T15:30:54.613Z,101231.73
2023-05-08T15:33:21.628Z,101231.36
2023-05-08T15:35:48.835Z,101232.05
2023-05-08T15:38:15.827Z,101235.75
2023-05-08T15:40:42.949Z,101241.39
2023-05-08T15:43:09.991Z,101245.30
2023-05-08T15:45:37.053Z,101247.63
2023-05-08T15:48:04.318Z,101248.14
2023-05-08T15:50:31.322Z,101252.58
2023-05-08T15:52:58.359Z,101250.57
2023-05-08T15:55:25.429Z,101254.67
2023-05-08T15:57:52.422Z,101256.80
2023-05-08T16:00:20.208Z,101255.67
2023-05-08T16:02:48.689Z,101257.39
2023-05-08T16:05:15.793Z,101256.73
2023-05-08T16:07:44.879Z,101256.76
2023-05-08T16:10:12.652Z,101259.38
2023-05-08T16:12:39.792Z,101262.04
2023-05-08T16:15:07.253Z,101263.69
2023-05-08T16:17:34.407Z,101264.77
2023-05-08T16:20:02.106Z,101264.73
2023-05-08T16:22:29.428Z,101271.17
2023-05-08T16:24:56.581Z,101273.30
2023-05-08T16:27:23.596Z,101272.13
2023-05-08T16:29:50.637Z,101278.60
2023-05-08T16:32:17.668Z,101278.86
2023-05-08T16:34:44.750Z,101277.88
2023-05-08T16:37:11.729Z,101280.52
2023-05-08T16:39:38.915Z,101285.13
2023-05-08T16:42:07.279Z,101289.38
2023-05-08T16:44:34.868Z,101291.73
2023-05-08T16:47:02.259Z,101289.67
2023-05-08T16:49:29.522Z,101295.73
2023-05-08T16:51:56.607Z,101299.27
2023-05-08T16:54:23.746Z,101303.16
2023-05-08T16:56:50.821Z,101312.77
2023-05-08T16:59:19.041Z,101312.44
2023-05-08T17:01:46.100Z,101314.83
2023-05-08T17:04:13.121Z,101321.10
2023-05-08T17:06:42.947Z,101320.63
2023-05-08T17:09:09.963Z,101325.47
2023-05-08T17:11:37.059Z,101328.55
2023-05-08T17:14:04.031Z,101330.85
2023-05-08T17:16:31.107Z,101331.49
2023-05-08T17:18:59.848Z,101335.61
2023-05-08T17:21:27.614Z,101340.20
2023-05-08T17:23:54.650Z,101339.80
2023-05-08T17:26:23.095Z,101347.85
2023-05-08T17:28:50.188Z,101347.50
2023-05-08T17:31:17.344Z,101349.10
2023-05-08T17:33:44.416Z,101352.49
2023-05-08T17:36:11.602Z,101360.13
2023-05-08T17:38:43.884Z,101366.00
2023-05-08T17:41:10.959Z,101372.37
2023-05-08T17:43:38.085Z,101374.63
2023-05-08T17:46:05.260Z,101383.96
2023-05-08T17:48:33.335Z,101382.86
2023-05-08T17:51:03.193Z,101386.98
2023-05-08T17:53:33.537Z,101390.74
2023-05-08T17:56:01.311Z,101392.41
2023-05-08T17:58:28.356Z,101392.20
2023-05-08T18:00:56.314Z,101397.90
2023-05-08T18:03:23.617Z,101400.08
2023-05-08T18:05:53.076Z,101403.83
2023-05-08T18:08:20.140Z,101407.59
2023-05-08T18:10:47.350Z,101406.23
2023-05-08T18:13:14.442Z,101409.11
2023-05-08T18:15:41.802Z,101408.05
2023-05-08T18:18:08.980Z,101414.23
2023-05-08T18:20:36.102Z,101416.38
2023-05-08T18:23:03.156Z,101419.75
2023-05-08T18:25:30.225Z,101420.68
2023-05-08T18:27:59.076Z,101418.59
2023-05-08T18:30:26.245Z,101418.32
2023-05-08T18:32:53.644Z,101413.10
2023-05-08T18:35:21.944Z,101413.84
2023-05-08T18:37:49.188Z,101415.85
2023-05-08T18:40:16.363Z,101415.23
2023-05-08T18:42:43.589Z,101416.84
2023-05-08T18:45:11.563Z,101416.66
2023-05-08T18:47:38.829Z,101416.52
2023-05-08T18:50:06.447Z,101417.75
2023-05-08T18:52:34.255Z,101418.05
2023-05-08T18:55:01.265Z,101417.27
2023-05-08T18:57:28.294Z,101420.39
2023-05-08T18:59:55.486Z,101423.33
2023-05-08T19:02:24.930Z,101427.65
2023-05-08T19:04:52.142Z,101428.24
2023-05-08T19:07:19.246Z,101430.72
2023-05-08T19:09:46.292Z,101430.73
2023-05-08T19:12:13.321Z,101434.56
2023-05-08T19:14:40.497Z,101432.98
2023-05-08T19:17:07.613Z,101434.92
2023-05-08T19:19:34.797Z,101433.89
2023-05-08T19:22:01.858Z,101437.44
2023-05-08T19:24:30.094Z,101434.80
2023-05-08T19:27:00.055Z,101432.88
2023-05-08T19:29:27.066Z,101430.46
2023-05-08T19:31:56.579Z,101426.79
2023-05-08T19:34:24.337Z,101428.79
2023-05-08T19:36:51.484Z,101435.19
2023-05-08T19:39:18.534Z,101431.05
2023-05-08T19:41:45.585Z,101432.34
2023-05-08T19:44:12.630Z,101431.36
2023-05-08T19:46:40.007Z,101434.40
2023-05-08T19:49:07.131Z,101428.34
2023-05-08T19:51:34.785Z,101431.21
2023-05-08T19:54:01.861Z,101432.66
2023-05-08T19:56:28.912Z,101432.17
2023-05-08T19:58:55.997Z,101430.80
2023-05-08T20:01:23.114Z,101433.66
2023-05-08T20:03:50.414Z,101434.23
2023-05-08T20:06:17.504Z,101433.05
2023-05-08T20:08:44.614Z,101431.13
2023-05-08T20:11:12.083Z,101431.85
2023-05-08T20:13:39.582Z,101424.15
2023-05-08T20:16:06.833Z,101424.34
2023-05-08T20:18:34.863Z,101424.52
2023-05-08T20:21:01.955Z,101425.97
2023-05-08T20:23:29.116Z,101427.73
2023-05-08T20:25:56.140Z,101425.99
2023-05-08T20:28:26.255Z,101428.82
2023-05-08T20:30:53.353Z,101428.12
2023-05-08T20:33:20.899Z,101424.90
2023-05-08T20:35:48.018Z,101425.73
2023-05-08T20:38:16.260Z,101420.95
2023-05-08T20:40:43.361Z,101421.72
2023-05-08T20:43:11.435Z,101421.46
2023-05-08T20:45:38.802Z,101424.35
2023-05-08T20:48:06.283Z,101420.23
2023-05-08T20:50:33.338Z,101420.67
2023-05-08T20:53:00.304Z,101421.28
2023-05-08T20:55:27.448Z,101421.70
2023-05-08T20:57:54.614Z,101421.23
2023-05-08T21:00:21.658Z,101421.09
2023-05-08T21:02:48.708Z,101420.84
2023-05-08T21:05:15.960Z,101416.62
2023-05-08T21:07:43.286Z,101413.59
2023-05-08T21:10:10.422Z,101414.60
2023-05-08T21:12:37.510Z,101415.40
2023-05-08T21:15:06.157Z,101414.27
2023-05-08T21:17:33.162Z,101414.63
2023-05-08T21:20:00.263Z,101406.45
2023-05-08T21:22:27.306Z,101408.86
2023-05-08T21:24:54.363Z,101403.98
2023-05-08T21:27:21.609Z,101405.95
2023-05-08T21:29:48.933Z,101401.70
2023-05-08T21:32:15.924Z,101406.56
2023-05-08T21:34:42.887Z,101400.36
2023-05-08T21:37:11.336Z,101398.38
2023-05-08T21:39:38.397Z,101400.43
2023-05-08T21:42:05.540Z,101398.30
2023-05-08T21:44:32.496Z,101403.52
2023-05-08T21:46:59.475Z,101398.58
2023-05-08T21:49:26.519Z,101396.14
2023-05-08T21:51:53.734Z,101399.33
2023-05-08T21:54:23.362Z,101397.23
2023-05-08T21:56:50.657Z,101397.92
2023-05-08T21:59:17.798Z,101393.88
2023-05-08T22:01:44.876Z,101387.67
2023-05-08T22:04:11.906Z,101387.48
2023-05-08T22:06:39.046Z,101386.08
2023-05-08T22:09:06.112Z,101381.56
2023-05-08T22:11:33.157Z,101384.74
2023-05-08T22:14:00.204Z,101379.33
2023-05-08T22:16:27.195Z,101383.89
2023-05-08T22:18:54.235Z,101379.98
2023-05-08T22:21:21.222Z,101384.73
2023-05-08T22:23:48.177Z,101380.88
2023-05-08T22:26:15.162Z,101384.39
2023-05-08T22:28:42.212Z,101386.35
2023-05-08T22:31:09.331Z,101379.84
2023-05-08T22:33:37.051Z,101384.77
2023-05-08T22:36:04.497Z,101378.83
2023-05-08T22:38:31.488Z,101375.83
2023-05-08T22:41:00.302Z,101373.40
2023-05-08T22:43:27.771Z,101373.40
2023-05-08T22:45:54.871Z,101365.52
2023-05-08T22:48:21.958Z,101363.06
2023-05-08T22:50:49.731Z,101356.40
2023-05-08T22:53:16.831Z,101356.58
2023-05-08T22:55:43.837Z,101353.41
2023-05-08T22:58:10.832Z,101352.19
2023-05-08T23:00:37.851Z,101346.92
2023-05-08T23:03:05.069Z,101350.09
2023-05-08T23:05:32.128Z,101349.59
2023-05-08T23:07:59.189Z,101347.83
2023-05-08T23:10:26.231Z,101343.45
2023-05-08T23:12:53.295Z,101345.56
2023-05-08T23:15:21.527Z,101342.20
2023-05-08T23:17:48.642Z,101340.47
2023-05-08T23:20:15.669Z,101341.34
2023-05-08T23:22:42.661Z,101340.83
2023-05-08T23:25:10.956Z,101340.83
2023-05-08T23:27:38.325Z,101342.10
2023-05-08T23:30:06.524Z,101338.96
2023-05-08T23:32:33.643Z,101337.94
2023-05-08T23:35:00.816Z,101337.80
2023-05-08T23:37:27.806Z,101334.34
2023-05-08T23:39:55.297Z,101337.02
2023-05-08T23:42:22.282Z,101333.38
2023-05-08T23:44:49.308Z,101339.40
2023-05-08T23:47:16.410Z,101333.98
2023-05-08T23:49:43.474Z,101330.52
2023-05-08T23:52:10.569Z,101332.67
2023-05-08T23:54:37.592Z,101335.17
2023-05-08T23:57:04.836Z,101335.55
2023-05-08T23:59:31.870Z,101331.03
